createdAt,value
2023-01-08T00:01:25.298Z,20.52
2023-01-08T00:03:52.710Z,22.50
2023-01-08T00:06:24.643Z,22.08
2023-01-08T00:08:51.805Z,18.55
2023-01-08T00:11:18.989Z,18.08
2023-01-08T00:13:46.362Z,19.05
2023-01-08T00:16:16.845Z,20.52
2023-01-08T00:18:45.907Z,18.50
2023-01-08T00:21:13.721Z,19.80
2023-01-08T00:23:41.022Z,18.90
2023-01-08T00:26:10.384Z,19.20
2023-01-08T00:28:38.392Z,19.63
2023-01-08T00:31:11.672Z,18.52
2023-01-08T00:33:40.325Z,15.30
2023-01-08T00:36:17.829Z,17.33
2023-01-08T00:38:46.242Z,16.63
2023-01-08T00:41:15.033Z,18.00
2023-01-08T00:43:42.295Z,18.10
2023-01-08T00:46:09.953Z,26.60
2023-01-08T00:48:38.075Z,24.67
2023-01-08T00:51:07.960Z,24.15
2023-01-08T00:53:37.318Z,19.30
2023-01-08T00:56:08.269Z,21.35
2023-01-08T00:58:35.809Z,16.48
2023-01-08T01:01:10.981Z,14.70
2023-01-08T01:03:38.302Z,17.90
2023-01-08T01:06:06.924Z,20.23
2023-01-08T01:08:34.723Z,16.48
2023-01-08T01:11:08.259Z,17.00
2023-01-08T01:13:35.430Z,15.95
2023-01-08T01:16:03.377Z,15.57
2023-01-08T01:18:31.242Z,18.27
2023-01-08T01:20:58.571Z,17.92
2023-01-08T01:23:25.770Z,18.58
2023-01-08T01:25:53.894Z,15.95
2023-01-08T01:28:21.357Z,18.98
2023-01-08T01:30:56.672Z,18.67
2023-01-08T01:33:23.878Z,16.85
2023-01-08T01:36:00.560Z,16.85
2023-01-08T01:38:28.400Z,16.50
2023-01-08T01:40:55.607Z,18.00
2023-01-08T01:43:38.043Z,18.10
2023-01-08T01:46:37.810Z,17.70
2023-01-08T01:49:25.261Z,17.75
2023-01-08T01:51:57.168Z,18.77
2023-01-08T01:54:25.105Z,18.50
2023-01-08T01:56:52.634Z,18.73
2023-01-08T01:59:19.990Z,19.25
2023-01-08T02:01:48.128Z,19.25
2023-01-08T02:04:15.701Z,16.98
2023-01-08T02:07:01.420Z,17.92
2023-01-08T02:10:02.206Z,17.42
2023-01-08T02:12:48.471Z,16.42
2023-01-08T02:15:32.460Z,18.17
2023-01-08T02:18:05.292Z,17.20
2023-01-08T02:20:45.963Z,17.52
2023-01-08T02:24:09.630Z,17.50
2023-01-08T02:26:38.046Z,19.77
2023-01-08T02:29:14.721Z,26.23
2023-01-08T02:31:43.093Z,26.67
2023-01-08T02:34:11.552Z,23.60
2023-01-08T02:36:55.193Z,26.30
2023-01-08T02:39:51.357Z,22.08
2023-01-08T02:42:50.572Z,22.77
2023-01-08T02:45:23.493Z,21.70
2023-01-08T02:48:35.756Z,21.67
2023-01-08T02:51:13.320Z,18.30
2023-01-08T02:53:48.431Z,19.50
2023-01-08T02:56:24.198Z,18.00
2023-01-08T02:58:53.527Z,20.17
2023-01-08T03:01:24.325Z,20.20
2023-01-08T03:04:01.622Z,18.00
2023-01-08T03:06:29.793Z,16.00
2023-01-08T03:08:59.620Z,19.55
2023-01-08T03:14:29.598Z,16.05
2023-01-08T03:17:23.601Z,17.42
2023-01-08T03:19:58.993Z,15.18
2023-01-08T03:22:28.610Z,17.00
2023-01-08T03:24:58.880Z,15.10
2023-01-08T03:27:32.051Z,14.75
2023-01-08T03:29:59.826Z,14.70
2023-01-08T03:32:30.097Z,14.38
2023-01-08T03:35:00.046Z,15.05
2023-01-08T03:37:36.665Z,15.18
2023-01-08T03:40:22.421Z,16.23
2023-01-08T03:42:49.947Z,14.07
2023-01-08T03:45:17.408Z,16.77
2023-01-08T03:47:46.174Z,13.90
2023-01-08T03:50:21.084Z,12.27
2023-01-08T03:52:48.426Z,11.93
2023-01-08T03:55:15.739Z,13.40
2023-01-08T03:57:42.869Z,14.40
2023-01-08T04:00:11.349Z,13.20
2023-01-08T04:02:38.674Z,14.38
2023-01-08T04:05:06.655Z,16.42
2023-01-08T04:07:33.790Z,15.63
2023-01-08T04:10:00.990Z,14.75
2023-01-08T04:12:28.108Z,13.82
2023-01-08T04:14:55.280Z,15.63
2023-01-08T04:17:22.419Z,15.38
2023-01-08T04:19:49.535Z,15.25
2023-01-08T04:22:16.719Z,15.18
2023-01-08T04:24:43.869Z,15.23
2023-01-08T04:27:11.010Z,18.30
2023-01-08T04:29:38.407Z,17.67
2023-01-08T04:32:05.705Z,18.25
2023-01-08T04:34:32.859Z,17.08
2023-01-08T04:37:00.290Z,17.67
2023-01-08T04:39:27.498Z,15.68
2023-01-08T04:41:54.796Z,16.35
2023-01-08T04:44:22.061Z,17.40
2023-01-08T04:46:49.181Z,17.42
2023-01-08T04:49:16.425Z,20.48
2023-01-08T04:51:43.796Z,20.92
2023-01-08T04:54:11.025Z,20.48
2023-01-08T04:56:38.255Z,21.35
2023-01-08T04:59:05.567Z,22.13
2023-01-08T05:01:32.849Z,20.15
2023-01-08T05:04:03.602Z,20.20
2023-01-08T05:06:32.107Z,19.65
2023-01-08T05:08:59.656Z,21.17
2023-01-08T05:11:27.000Z,19.42
2023-01-08T05:13:54.949Z,17.73
2023-01-08T05:16:22.779Z,17.27
2023-01-08T05:18:50.211Z,15.20
2023-01-08T05:21:17.848Z,15.27
2023-01-08T05:23:49.593Z,16.30
2023-01-08T05:26:17.139Z,17.65
2023-01-08T05:28:45.072Z,17.00
2023-01-08T05:31:13.608Z,18.40
2023-01-08T05:33:41.462Z,23.25
2023-01-08T05:36:11.275Z,18.33
2023-01-08T05:41:07.637Z,15.98
2023-01-08T05:43:35.645Z,14.63
2023-01-08T05:46:03.925Z,15.27
2023-01-08T05:48:33.916Z,15.95
2023-01-08T05:51:01.808Z,14.45
2023-01-08T05:53:31.502Z,26.38
2023-01-08T05:56:01.647Z,31.75
2023-01-08T05:58:29.414Z,32.80
2023-01-08T06:01:07.458Z,23.25
2023-01-08T06:03:34.738Z,16.02
2023-01-08T06:06:05.224Z,14.48
2023-01-08T06:08:33.263Z,16.65
2023-01-08T06:11:03.630Z,12.95
2023-01-08T06:13:31.584Z,15.20
2023-01-08T06:16:00.390Z,18.42
2023-01-08T06:18:29.174Z,17.23
2023-01-08T06:20:56.354Z,14.23
2023-01-08T06:23:23.611Z,15.35
2023-01-08T06:25:55.872Z,13.85
2023-01-08T06:28:23.605Z,14.73
2023-01-08T06:30:51.298Z,14.90
2023-01-08T06:33:21.392Z,18.05
2023-01-08T06:35:49.152Z,18.50
2023-01-08T06:38:18.709Z,18.58
2023-01-08T06:40:47.164Z,23.10
2023-01-08T06:43:14.613Z,26.35
2023-01-08T06:45:41.930Z,22.48
2023-01-08T06:48:09.136Z,16.10
2023-01-08T06:50:36.328Z,13.52
2023-01-08T06:53:03.543Z,13.57
2023-01-08T06:55:30.694Z,16.17
2023-01-08T06:57:58.811Z,16.23
2023-01-08T07:00:26.837Z,15.90
2023-01-08T07:02:55.387Z,19.50
2023-01-08T07:05:23.253Z,17.98
2023-01-08T07:07:50.934Z,16.08
2023-01-08T07:10:20.042Z,18.42
2023-01-08T07:12:48.300Z,21.13
2023-01-08T07:15:16.105Z,26.98
2023-01-08T07:17:43.288Z,22.25
2023-01-08T07:20:11.021Z,17.65
2023-01-08T07:22:38.232Z,18.48
2023-01-08T07:25:06.626Z,18.70
2023-01-08T07:27:33.757Z,24.27
2023-01-08T07:30:00.912Z,18.77
2023-01-08T07:32:28.085Z,18.98
2023-01-08T07:34:58.474Z,18.08
2023-01-08T07:37:26.203Z,18.40
2023-01-08T07:39:53.456Z,16.42
2023-01-08T07:42:21.030Z,19.20
2023-01-08T07:44:48.230Z,18.35
2023-01-08T07:47:15.479Z,18.23
2023-01-08T07:49:42.823Z,18.67
2023-01-08T07:52:10.004Z,20.25
2023-01-08T07:54:37.279Z,22.38
2023-01-08T07:57:04.471Z,24.10
2023-01-08T07:59:31.786Z,22.92
2023-01-08T08:01:59.192Z,23.40
2023-01-08T08:04:26.464Z,23.23
2023-01-08T08:06:54.782Z,22.40
2023-01-08T08:09:22.317Z,23.05
2023-01-08T08:11:49.716Z,22.80
2023-01-08T08:14:17.007Z,22.58
2023-01-08T08:16:44.146Z,24.73
2023-01-08T08:19:12.150Z,26.15
2023-01-08T08:21:39.487Z,27.02
2023-01-08T08:24:07.118Z,22.90
2023-01-08T08:26:34.600Z,27.40
2023-01-08T08:29:01.779Z,28.80
2023-01-08T08:31:29.595Z,22.92
2023-01-08T08:33:57.214Z,18.50
2023-01-08T08:36:30.829Z,17.33
2023-01-08T08:38:58.149Z,19.75
2023-01-08T08:41:25.555Z,21.35
2023-01-08T08:43:52.967Z,21.65
2023-01-08T08:46:20.371Z,23.77
2023-01-08T08:48:47.640Z,23.85
2023-01-08T08:51:14.999Z,23.25
2023-01-08T08:53:42.244Z,28.58
2023-01-08T08:56:09.497Z,24.48
2023-01-08T08:58:36.946Z,24.52
2023-01-08T09:01:04.809Z,23.98
2023-01-08T09:03:32.226Z,20.70
2023-01-08T09:05:59.998Z,23.00
2023-01-08T09:08:27.267Z,23.80
2023-01-08T09:10:54.568Z,22.00
2023-01-08T09:13:21.911Z,20.52
2023-01-08T09:15:49.181Z,19.80
2023-01-08T09:18:16.471Z,31.30
2023-01-08T09:20:43.780Z,36.00
2023-01-08T09:23:11.231Z,29.75
2023-01-08T09:25:38.453Z,22.92
2023-01-08T09:28:11.504Z,19.85
2023-01-08T09:30:39.765Z,21.50
2023-01-08T09:33:07.315Z,23.05
2023-01-08T09:35:34.797Z,23.67
2023-01-08T09:38:02.015Z,21.85
2023-01-08T09:40:39.075Z,22.40
2023-01-08T09:43:10.819Z,22.75
2023-01-08T09:45:39.090Z,21.30
2023-01-08T09:48:15.210Z,21.70
2023-01-08T09:50:42.649Z,19.90
2023-01-08T09:53:16.108Z,23.80
2023-01-08T09:55:45.964Z,24.00
2023-01-08T09:58:45.095Z,20.90
2023-01-08T10:01:37.752Z,19.92
2023-01-08T10:04:21.649Z,19.73
2023-01-08T10:06:59.791Z,18.80
2023-01-08T10:09:32.388Z,15.90
2023-01-08T10:12:03.613Z,18.70
2023-01-08T10:14:37.670Z,15.80
2023-01-08T10:17:20.209Z,18.50
2023-01-08T10:19:47.423Z,13.52
2023-01-08T10:22:23.668Z,13.27
2023-01-08T10:24:51.793Z,11.20
2023-01-08T10:27:22.945Z,10.98
2023-01-08T10:29:51.785Z,12.68
2023-01-08T10:32:29.601Z,11.43
2023-01-08T10:34:58.700Z,15.57
2023-01-08T10:37:49.845Z,18.02
2023-01-08T10:40:45.278Z,17.23
2023-01-08T10:43:23.940Z,19.95
2023-01-08T10:46:21.459Z,15.70
2023-01-08T10:48:55.262Z,14.63
2023-01-08T10:51:29.225Z,12.73
2023-01-08T10:54:11.938Z,13.38
2023-01-08T10:56:44.223Z,11.77
2023-01-08T10:59:22.887Z,10.38
2023-01-08T11:01:55.787Z,11.02
2023-01-08T11:04:31.832Z,10.05
2023-01-08T11:07:06.092Z,7.70
2023-01-08T11:09:47.388Z,7.55
2023-01-08T11:12:39.705Z,8.70
2023-01-08T11:15:43.870Z,7.90
2023-01-08T11:18:24.528Z,7.22
2023-01-08T11:20:53.909Z,8.40
2023-01-08T11:23:26.108Z,8.73
2023-01-08T11:26:20.002Z,6.28
2023-01-08T11:29:12.760Z,6.82
2023-01-08T11:32:06.723Z,5.78
2023-01-08T11:34:54.785Z,6.03
2023-01-08T11:37:38.458Z,7.43
2023-01-08T11:40:21.201Z,6.10
2023-01-08T11:43:15.303Z,7.68
2023-01-08T11:46:08.111Z,6.45
2023-01-08T11:49:14.629Z,6.47
2023-01-08T11:52:28.619Z,6.28
2023-01-08T11:55:33.938Z,6.53
2023-01-08T11:58:36.166Z,7.70
2023-01-08T12:01:44.129Z,8.30
2023-01-08T12:05:03.934Z,17.63
2023-01-08T12:07:49.617Z,10.73
2023-01-08T12:10:54.983Z,7.53
2023-01-08T12:14:19.128Z,7.22
2023-01-08T12:17:26.162Z,6.60
2023-01-08T12:20:17.374Z,6.63
2023-01-08T12:23:10.408Z,6.93
2023-01-08T12:26:11.978Z,6.80
2023-01-08T12:29:19.052Z,6.75
2023-01-08T12:32:01.900Z,7.10
2023-01-08T12:34:57.161Z,12.20
2023-01-08T12:38:04.353Z,7.80
2023-01-08T12:40:58.427Z,7.15
2023-01-08T12:43:31.628Z,8.23
2023-01-08T12:46:01.823Z,7.75
2023-01-08T12:48:33.095Z,8.52
2023-01-08T12:51:40.672Z,8.55
2023-01-08T12:54:19.517Z,8.38
2023-01-08T12:57:02.198Z,8.63
2023-01-08T13:00:03.110Z,8.68
2023-01-08T13:03:00.918Z,8.23
2023-01-08T13:05:34.588Z,11.43
2023-01-08T13:08:23.733Z,11.27
2023-01-08T13:10:54.812Z,28.27
2023-01-08T13:13:34.569Z,9.57
2023-01-08T13:16:11.174Z,11.60
2023-01-08T13:18:39.435Z,9.10
2023-01-08T13:21:11.269Z,20.17
2023-01-08T13:23:38.566Z,24.20
2023-01-08T13:26:06.785Z,28.60
2023-01-08T13:28:37.005Z,26.92
2023-01-08T13:31:23.939Z,24.35
2023-01-08T13:33:54.556Z,5.20
2023-01-08T13:36:29.708Z,5.30
2023-01-08T13:39:06.010Z,7.25
2023-01-08T13:41:35.510Z,4.57
2023-01-08T13:46:58.349Z,5.80
2023-01-08T13:49:44.155Z,4.65
2023-01-08T13:52:36.155Z,5.65
2023-01-08T13:55:11.266Z,4.53
2023-01-08T13:57:45.255Z,7.18
2023-01-08T14:00:25.226Z,11.45
2023-01-08T14:02:54.363Z,4.32
2023-01-08T14:05:30.236Z,4.90
2023-01-08T14:07:58.507Z,6.60
2023-01-08T14:10:28.133Z,8.98
2023-01-08T14:13:06.648Z,8.43
2023-01-08T14:15:34.984Z,8.77
2023-01-08T14:18:03.537Z,5.82
2023-01-08T14:20:43.523Z,5.60
2023-01-08T14:23:33.824Z,8.38
2023-01-08T14:26:05.863Z,6.00
2023-01-08T14:28:33.593Z,6.63
2023-01-08T14:31:00.943Z,8.23
2023-01-08T14:33:36.719Z,6.32
2023-01-08T14:36:07.198Z,9.23
2023-01-08T14:38:34.511Z,6.38
2023-01-08T14:41:07.697Z,6.93
2023-01-08T14:43:55.152Z,7.47
2023-01-08T14:46:28.278Z,6.63
2023-01-08T14:48:56.134Z,10.23
2023-01-08T14:51:29.569Z,8.10
2023-01-08T14:54:05.573Z,8.07
2023-01-08T14:56:35.517Z,9.50
2023-01-08T14:59:16.639Z,12.73
2023-01-08T15:01:50.236Z,19.23
2023-01-08T15:04:20.588Z,8.68
2023-01-08T15:06:49.819Z,10.32
2023-01-08T15:09:31.688Z,12.13
2023-01-08T15:12:01.141Z,13.27
2023-01-08T15:17:17.559Z,16.42
2023-01-08T15:19:59.137Z,15.88
2023-01-08T15:22:33.104Z,14.90
2023-01-08T15:25:06.690Z,22.65
2023-01-08T15:27:36.681Z,14.75
2023-01-08T15:30:08.758Z,25.95
2023-01-08T15:32:38.519Z,31.42
2023-01-08T15:35:17.716Z,27.98
2023-01-08T15:37:45.323Z,14.70
2023-01-08T15:40:12.936Z,66.25
2023-01-08T15:42:59.188Z,33.40
2023-01-08T15:45:28.855Z,75.93
2023-01-08T15:47:56.340Z,53.42
2023-01-08T15:50:25.820Z,17.98
2023-01-08T15:52:53.819Z,17.77
2023-01-08T15:55:23.785Z,19.75
2023-01-08T16:00:22.287Z,25.50
2023-01-08T16:02:52.530Z,22.13
2023-01-08T16:05:23.746Z,26.75
2023-01-08T16:07:51.478Z,26.17
2023-01-08T16:10:19.696Z,23.67
2023-01-08T16:12:47.542Z,25.08
2023-01-08T16:15:15.457Z,25.40
2023-01-08T16:17:43.454Z,31.00
2023-01-08T16:20:12.950Z,38.33
2023-01-08T16:25:08.877Z,32.17
2023-01-08T16:27:37.856Z,30.33
2023-01-08T16:30:08.906Z,28.92
2023-01-08T16:32:37.187Z,27.98
2023-01-08T16:35:04.939Z,25.77
2023-01-08T16:37:32.196Z,32.13
2023-01-08T16:39:59.542Z,33.70
2023-01-08T16:42:26.835Z,20.58
2023-01-08T16:44:53.985Z,19.35
2023-01-08T16:47:21.276Z,17.38
2023-01-08T16:49:49.856Z,54.70
2023-01-08T16:52:17.974Z,41.70
2023-01-08T16:54:46.683Z,20.90
2023-01-08T16:57:14.322Z,61.63
2023-01-08T16:59:41.671Z,109.63
2023-01-08T17:02:10.149Z,36.53
2023-01-08T17:04:37.810Z,24.55
2023-01-08T17:07:06.103Z,25.88
2023-01-08T17:09:33.802Z,18.48
2023-01-08T17:12:01.232Z,17.55
2023-01-08T17:14:28.658Z,21.33
2023-01-08T17:16:56.158Z,17.33
2023-01-08T17:19:23.583Z,20.02
2023-01-08T17:21:50.951Z,20.23
2023-01-08T17:24:18.223Z,18.55
2023-01-08T17:26:45.805Z,20.88
2023-01-08T17:29:13.114Z,23.75
2023-01-08T17:31:40.613Z,25.08
2023-01-08T17:34:11.951Z,23.80
2023-01-08T17:36:39.428Z,23.17
2023-01-08T17:39:07.129Z,35.58
2023-01-08T17:41:56.826Z,42.38
2023-01-08T17:44:25.805Z,37.53
2023-01-08T17:46:52.947Z,30.77
2023-01-08T17:49:20.198Z,27.70
2023-01-08T17:51:49.804Z,30.80
2023-01-08T17:54:18.528Z,29.48
2023-01-08T17:56:48.440Z,28.02
2023-01-08T17:59:17.681Z,31.45
2023-01-08T18:01:45.554Z,30.63
2023-01-08T18:04:14.139Z,35.67
2023-01-08T18:06:43.090Z,31.53
2023-01-08T18:09:11.849Z,31.42
2023-01-08T18:11:41.409Z,52.42
